Time;durP1;ratioP1;P1;durP2;ratioP2;P2;SDS_P1;SDS_P2;PMS_P1;PMS_P2;Temp;Humidity;BMP_temperature;BMP_pressure;BME280_temperature;BME280_humidity;BME280_pressure;Samples;Min_cycle;Max_cycle;Signal;HPM_P1;HPM_P2
2023/03/06 00:02:00;;;;;;;59.65;30.55;;;;;;;;;;5029357;28;20059;-76
2023/03/06 00:04:26;;;;;;;50.63;27.83;;;;;;;;;;5028349;28;20052;-75
2023/03/06 00:06:53;;;;;;;49.30;26.17;;;;;;;;;;5024657;28;20096;-76
2023/03/06 00:09:18;;;;;;;50.22;25.48;;;;;;;;;;5018946;28;20132;-75
2023/03/06 00:11:44;;;;;;;56.67;26.13;;;;;;;;;;5025285;28;20109;-75
2023/03/06 00:14:10;;;;;;;47.78;24.77;;;;;;;;;;5029407;28;20038;-76
2023/03/06 00:16:36;;;;;;;60.58;30.90;;;;;;;;;;5025270;28;20438;-75
2023/03/06 00:19:02;;;;;;;51.13;26.70;;;;;;;;;;5028946;28;20120;-75
2023/03/06 00:21:28;;;;;;;63.63;32.50;;;;;;;;;;5020109;28;20063;-76
2023/03/06 00:23:54;;;;;;;56.95;31.63;;;;;;;;;;5029150;28;20040;-75
2023/03/06 00:26:20;;;;;;;58.58;31.85;;;;;;;;;;5041899;28;20036;-75
2023/03/06 00:28:46;;;;;;;57.15;29.80;;;;;;;;;;5023314;28;20113;-75
2023/03/06 00:31:12;;;;;;;55.50;29.15;;;;;;;;;;5026732;28;20041;-75
2023/03/06 00:33:38;;;;;;;56.58;28.05;;;;;;;;;;5021256;28;20033;-76
2023/03/06 00:36:05;;;;;;;49.67;25.75;;;;;;;;;;5020877;28;20038;-76
2023/03/06 00:38:34;;;;;;;50.40;26.77;;;;;;;;;;5027981;28;20041;-75
2023/03/06 00:41:05;;;;;;;49.00;24.63;;;;;;;;;;5024152;28;20449;-76
2023/03/06 00:43:31;;;;;;;47.80;25.30;;;;;;;;;;5027254;28;20021;-75
2023/03/06 00:45:57;;;;;;;52.92;26.52;;;;;;;;;;5018516;28;20040;-76
2023/03/06 00:48:23;;;;;;;52.78;26.35;;;;;;;;;;5018815;28;20076;-75
2023/03/06 00:50:49;;;;;;;57.30;30.27;;;;;;;;;;5017430;28;20394;-76
2023/03/06 00:53:15;;;;;;;57.22;27.58;;;;;;;;;;5029912;28;20060;-75
2023/03/06 00:55:44;;;;;;;49.05;24.58;;;;;;;;;;5028685;28;20033;-75
2023/03/06 00:58:10;;;;;;;55.60;27.27;;;;;;;;;;5029167;28;20061;-76
2023/03/06 01:00:36;;;;;;;56.67;28.13;;;;;;;;;;5028500;28;20138;-76
2023/03/06 01:03:02;;;;;;;50.53;27.38;;;;;;;;;;5029259;28;20026;-76
2023/03/06 01:05:28;;;;;;;49.58;26.45;;;;;;;;;;5019617;28;20051;-76
2023/03/06 01:07:54;;;;;;;52.03;26.90;;;;;;;;;;5028207;28;20037;-76
2023/03/06 01:10:20;;;;;;;49.47;25.67;;;;;;;;;;5031222;28;20033;-75
2023/03/06 01:12:46;;;;;;;48.90;25.73;;;;;;;;;;5025563;28;20033;-76
2023/03/06 01:15:13;;;;;;;49.85;26.42;;;;;;;;;;5030291;28;20033;-75
2023/03/06 01:17:39;;;;;;;52.67;27.13;;;;;;;;;;5021257;28;20061;-75
2023/03/06 01:20:05;;;;;;;48.95;26.90;;;;;;;;;;5022963;28;20080;-75
2023/03/06 01:22:31;;;;;;;50.97;25.88;;;;;;;;;;5016753;28;20026;-75
2023/03/06 01:24:57;;;;;;;55.25;28.00;;;;;;;;;;5029897;28;20372;-76
2023/03/06 01:27:23;;;;;;;55.03;29.52;;;;;;;;;;5031508;28;20104;-75
2023/03/06 01:29:49;;;;;;;51.58;26.83;;;;;;;;;;5029011;28;20366;-76
2023/03/06 01:32:15;;;;;;;52.80;27.27;;;;;;;;;;5024797;28;20037;-76
2023/03/06 01:34:41;;;;;;;51.15;27.10;;;;;;;;;;5032413;28;20037;-76
2023/03/06 01:37:07;;;;;;;54.67;28.50;;;;;;;;;;5031529;28;20475;-75
2023/03/06 01:39:33;;;;;;;52.38;26.02;;;;;;;;;;5032189;28;20053;-76
2023/03/06 01:41:59;;;;;;;52.20;28.27;;;;;;;;;;5032965;28;20033;-75
2023/03/06 01:44:25;;;;;;;48.75;27.85;;;;;;;;;;5031884;28;20029;-75
2023/03/06 01:46:51;;;;;;;52.08;27.42;;;;;;;;;;5028914;28;22211;-76
2023/03/06 01:49:31;;;;;;;50.03;25.67;;;;;;;;;;5028306;28;20039;-75
2023/03/06 01:52:00;;;;;;;52.22;27.27;;;;;;;;;;5023491;28;20075;-76
2023/03/06 01:54:29;;;;;;;52.58;25.98;;;;;;;;;;5025133;28;20068;-76
2023/03/06 01:56:58;;;;;;;55.80;28.10;;;;;;;;;;5036485;28;20034;-76
2023/03/06 01:59:25;;;;;;;51.03;25.23;;;;;;;;;;5015477;28;20045;-75
2023/03/06 02:01:52;;;;;;;51.40;25.35;;;;;;;;;;5031359;28;20784;-75
2023/03/06 02:04:18;;;;;;;53.05;25.67;;;;;;;;;;5035203;28;20041;-75
2023/03/06 02:06:44;;;;;;;53.35;27.20;;;;;;;;;;5031440;28;20112;-75
2023/03/06 02:09:10;;;;;;;56.55;29.27;;;;;;;;;;5028506;28;20041;-75
2023/03/06 02:11:37;;;;;;;58.83;28.58;;;;;;;;;;5027520;28;20045;-75
2023/03/06 02:14:03;;;;;;;51.08;27.85;;;;;;;;;;5029862;28;20786;-75
2023/03/06 02:16:30;;;;;;;51.95;26.85;;;;;;;;;;5031245;28;20065;-76
2023/03/06 02:18:58;;;;;;;46.53;25.95;;;;;;;;;;5024945;28;20038;-76
2023/03/06 02:21:25;;;;;;;56.17;26.73;;;;;;;;;;5023502;28;20056;-76
2023/03/06 02:24:00;;;;;;;54.38;27.60;;;;;;;;;;5030077;28;20033;-75
2023/03/06 02:26:27;;;;;;;52.60;26.45;;;;;;;;;;5018751;28;20036;-77
2023/03/06 02:28:53;;;;;;;50.35;25.73;;;;;;;;;;5030559;28;20033;-76
2023/03/06 02:31:21;;;;;;;56.78;28.77;;;;;;;;;;5022739;28;20030;-76
2023/03/06 02:33:59;;;;;;;45.80;23.13;;;;;;;;;;5024327;28;20045;-76
2023/03/06 02:36:25;;;;;;;49.78;26.63;;;;;;;;;;5021149;28;20024;-76
2023/03/06 02:38:52;;;;;;;40.53;21.92;;;;;;;;;;5029579;28;20088;-75
2023/03/06 02:41:18;;;;;;;52.53;26.85;;;;;;;;;;5023276;28;20557;-76
2023/03/06 02:43:45;;;;;;;48.38;23.80;;;;;;;;;;5030244;28;20034;-76
2023/03/06 02:46:11;;;;;;;44.58;24.65;;;;;;;;;;5018512;28;20045;-76
2023/03/06 02:48:37;;;;;;;47.97;25.25;;;;;;;;;;5027025;28;20052;-76
2023/03/06 02:51:03;;;;;;;49.08;25.08;;;;;;;;;;5022217;28;20055;-76
2023/03/06 02:53:29;;;;;;;42.25;22.67;;;;;;;;;;5034656;28;20459;-76
2023/03/06 02:55:55;;;;;;;47.97;24.25;;;;;;;;;;5032825;28;20436;-75
2023/03/06 02:58:21;;;;;;;42.15;21.42;;;;;;;;;;5029785;28;20538;-75
2023/03/06 03:00:48;;;;;;;39.20;21.27;;;;;;;;;;5031025;28;20033;-75
2023/03/06 03:03:14;;;;;;;42.67;21.45;;;;;;;;;;5029638;28;20080;-76
2023/03/06 03:05:40;;;;;;;40.38;22.58;;;;;;;;;;5030740;28;20045;-76
2023/03/06 03:08:06;;;;;;;39.75;21.23;;;;;;;;;;5022188;28;20080;-76
2023/03/06 03:10:32;;;;;;;40.88;21.35;;;;;;;;;;5034607;28;20647;-76
2023/03/06 03:12:58;;;;;;;45.85;22.33;;;;;;;;;;5028830;28;20041;-75
2023/03/06 03:15:25;;;;;;;39.03;20.83;;;;;;;;;;5016313;28;20065;-76
2023/03/06 03:17:51;;;;;;;39.55;20.70;;;;;;;;;;5028167;28;20033;-76
2023/03/06 03:20:18;;;;;;;39.28;20.10;;;;;;;;;;5036827;28;20084;-76
2023/03/06 03:22:47;;;;;;;41.47;19.00;;;;;;;;;;5029127;28;20092;-76
2023/03/06 03:25:13;;;;;;;40.97;21.13;;;;;;;;;;5029400;28;20030;-76
2023/03/06 03:27:39;;;;;;;42.05;21.55;;;;;;;;;;5022595;28;20164;-76
2023/03/06 03:30:05;;;;;;;41.42;22.25;;;;;;;;;;5019257;28;20199;-76
2023/03/06 03:32:31;;;;;;;46.05;20.38;;;;;;;;;;5029967;28;20072;-75
2023/03/06 03:34:57;;;;;;;44.80;22.40;;;;;;;;;;5028074;28;20029;-76
2023/03/06 03:37:23;;;;;;;41.97;21.92;;;;;;;;;;5024626;28;20044;-76
2023/03/06 03:39:49;;;;;;;47.67;21.88;;;;;;;;;;5012977;28;20033;-76
2023/03/06 03:42:15;;;;;;;42.25;20.40;;;;;;;;;;5028105;28;20787;-76
2023/03/06 03:44:41;;;;;;;43.42;21.27;;;;;;;;;;5019452;28;20029;-75
2023/03/06 03:47:07;;;;;;;44.30;19.90;;;;;;;;;;5019426;28;20038;-76
2023/03/06 03:49:33;;;;;;;40.72;19.98;;;;;;;;;;5027060;28;20034;-76
2023/03/06 03:51:59;;;;;;;49.55;22.40;;;;;;;;;;5015965;28;20578;-75
2023/03/06 03:54:25;;;;;;;45.33;22.77;;;;;;;;;;5029670;28;20037;-76
2023/03/06 03:56:51;;;;;;;47.45;22.85;;;;;;;;;;5028978;28;20690;-76
2023/03/06 03:59:17;;;;;;;39.95;23.05;;;;;;;;;;5028620;28;20034;-76
2023/03/06 04:01:44;;;;;;;47.22;22.88;;;;;;;;;;5020358;28;20034;-76
2023/03/06 04:04:10;;;;;;;50.03;22.35;;;;;;;;;;5025179;28;20039;-75
2023/03/06 04:06:36;;;;;;;48.55;24.45;;;;;;;;;;5025961;28;20052;-76
2023/03/06 04:09:03;;;;;;;45.50;22.73;;;;;;;;;;5017679;28;20041;-76
2023/03/06 04:11:29;;;;;;;47.05;21.75;;;;;;;;;;5020808;28;20038;-76
2023/03/06 04:13:55;;;;;;;47.40;23.58;;;;;;;;;;5028979;28;20032;-76
2023/03/06 04:16:21;;;;;;;54.72;26.65;;;;;;;;;;5030171;28;20033;-76
2023/03/06 04:18:47;;;;;;;48.88;26.15;;;;;;;;;;5029565;28;20088;-76
2023/03/06 04:21:13;;;;;;;50.63;24.45;;;;;;;;;;5014360;28;20049;-76
2023/03/06 04:23:39;;;;;;;51.88;25.10;;;;;;;;;;5025241;28;20471;-75
2023/03/06 04:26:05;;;;;;;48.97;24.85;;;;;;;;;;5025961;28;20040;-76
2023/03/06 04:28:32;;;;;;;56.90;26.83;;;;;;;;;;5021318;28;20033;-76
2023/03/06 04:30:57;;;;;;;48.28;24.50;;;;;;;;;;5031883;28;20129;-76
2023/03/06 04:33:23;;;;;;;47.85;23.70;;;;;;;;;;5019515;28;20105;-76
2023/03/06 04:35:49;;;;;;;44.53;23.70;;;;;;;;;;5028067;28;20041;-76
2023/03/06 04:38:16;;;;;;;43.20;22.50;;;;;;;;;;5021313;28;20041;-76
2023/03/06 04:40:42;;;;;;;45.45;21.25;;;;;;;;;;5037176;28;20033;-75
2023/03/06 04:43:08;;;;;;;50.25;26.23;;;;;;;;;;5029125;28;20036;-77
2023/03/06 04:45:34;;;;;;;47.40;22.17;;;;;;;;;;5028474;28;20383;-76
2023/03/06 04:48:00;;;;;;;42.15;20.98;;;;;;;;;;5027585;28;20033;-76
2023/03/06 04:50:30;;;;;;;45.63;22.85;;;;;;;;;;5032522;28;20061;-76
2023/03/06 04:52:56;;;;;;;48.35;23.58;;;;;;;;;;5032974;28;20234;-75
2023/03/06 04:55:22;;;;;;;48.28;24.05;;;;;;;;;;5032622;28;20029;-76
2023/03/06 04:57:48;;;;;;;50.28;21.70;;;;;;;;;;5028698;28;20053;-75
2023/03/06 05:00:15;;;;;;;50.33;26.85;;;;;;;;;;5026187;28;20181;-75
2023/03/06 05:02:42;;;;;;;42.63;20.77;;;;;;;;;;5024098;28;20033;-76
2023/03/06 05:05:09;;;;;;;46.33;21.30;;;;;;;;;;5023446;28;20057;-75
2023/03/06 05:07:35;;;;;;;43.42;22.65;;;;;;;;;;5032878;28;20025;-75
2023/03/06 05:10:01;;;;;;;46.20;22.52;;;;;;;;;;5029601;28;20045;-76
2023/03/06 05:12:27;;;;;;;45.13;23.63;;;;;;;;;;5024866;28;20041;-76
2023/03/06 05:14:53;;;;;;;47.38;24.17;;;;;;;;;;5029394;28;20030;-76
2023/03/06 05:17:19;;;;;;;46.38;23.73;;;;;;;;;;5031723;28;20037;-76
2023/03/06 05:19:45;;;;;;;55.65;26.13;;;;;;;;;;5036693;28;20152;-76
2023/03/06 05:22:11;;;;;;;43.08;21.73;;;;;;;;;;5032178;28;20112;-76
2023/03/06 05:24:37;;;;;;;51.33;25.80;;;;;;;;;;5026363;28;20097;-76
2023/03/06 05:27:03;;;;;;;57.13;28.08;;;;;;;;;;5031941;28;20041;-76
2023/03/06 05:29:30;;;;;;;50.65;25.20;;;;;;;;;;5026132;28;20059;-76
2023/03/06 05:31:56;;;;;;;54.25;27.50;;;;;;;;;;5023440;28;20129;-76
2023/03/06 05:34:22;;;;;;;48.65;24.55;;;;;;;;;;5019934;28;20112;-75
2023/03/06 05:36:48;;;;;;;54.70;26.25;;;;;;;;;;5023596;28;20156;-76
2023/03/06 05:39:13;;;;;;;56.95;25.92;;;;;;;;;;5017545;28;20510;-76
2023/03/06 05:41:39;;;;;;;59.22;27.50;;;;;;;;;;5028202;28;20076;-76
2023/03/06 05:44:05;;;;;;;59.05;27.33;;;;;;;;;;5024950;28;20478;-76
2023/03/06 05:46:31;;;;;;;53.78;26.20;;;;;;;;;;5029017;28;20068;-75
2023/03/06 05:48:57;;;;;;;53.42;26.25;;;;;;;;;;5035812;28;20033;-76
2023/03/06 05:51:24;;;;;;;48.92;25.95;;;;;;;;;;5032103;28;20029;-76
2023/03/06 05:53:50;;;;;;;56.08;26.58;;;;;;;;;;5024992;28;20029;-75
2023/03/06 05:56:16;;;;;;;52.13;26.25;;;;;;;;;;5033059;28;20119;-76
2023/03/06 05:58:42;;;;;;;57.13;28.73;;;;;;;;;;5029820;28;20024;-76
2023/03/06 06:01:09;;;;;;;73.88;38.17;;;;;;;;;;5033153;28;20037;-75
2023/03/06 06:03:35;;;;;;;58.95;28.88;;;;;;;;;;5031496;28;20017;-75
2023/03/06 06:06:05;;;;;;;55.75;30.25;;;;;;;;;;5033207;28;20063;-76
2023/03/06 06:08:32;;;;;;;58.17;27.13;;;;;;;;;;5020014;28;20059;-75
2023/03/06 06:10:58;;;;;;;56.72;29.45;;;;;;;;;;5019357;28;20506;-76
2023/03/06 06:13:24;;;;;;;50.95;26.23;;;;;;;;;;5026041;28;20022;-75
2023/03/06 06:15:50;;;;;;;56.03;26.48;;;;;;;;;;5025240;28;20080;-76
2023/03/06 06:18:16;;;;;;;75.85;34.20;;;;;;;;;;5016770;28;20041;-76
2023/03/06 06:20:43;;;;;;;54.92;28.75;;;;;;;;;;5022465;28;20030;-77
2023/03/06 06:23:10;;;;;;;47.60;24.30;;;;;;;;;;5027020;28;20036;-76
2023/03/06 06:25:36;;;;;;;48.80;26.50;;;;;;;;;;5027923;28;20442;-76
2023/03/06 06:28:02;;;;;;;51.88;25.60;;;;;;;;;;5031142;28;20030;-76
2023/03/06 06:30:29;;;;;;;63.03;30.95;;;;;;;;;;5030787;28;20040;-76
2023/03/06 06:32:54;;;;;;;54.40;26.13;;;;;;;;;;5017588;28;20037;-76
2023/03/06 06:35:21;;;;;;;58.10;28.30;;;;;;;;;;5026228;28;20049;-76
2023/03/06 06:37:46;;;;;;;56.90;27.88;;;;;;;;;;5023508;28;20056;-76
2023/03/06 06:40:13;;;;;;;54.50;27.95;;;;;;;;;;5034236;28;20530;-75
2023/03/06 06:42:39;;;;;;;54.65;27.02;;;;;;;;;;5023502;28;20604;-75
2023/03/06 06:45:05;;;;;;;50.55;26.48;;;;;;;;;;5033973;28;20411;-76
2023/03/06 06:47:32;;;;;;;56.25;27.10;;;;;;;;;;5033258;28;20483;-76
2023/03/06 06:49:58;;;;;;;55.95;25.85;;;;;;;;;;5028735;28;20057;-76
2023/03/06 06:52:25;;;;;;;50.08;27.05;;;;;;;;;;5027112;28;20458;-75
2023/03/06 06:54:51;;;;;;;52.22;25.60;;;;;;;;;;5031035;28;20059;-76
2023/03/06 06:57:17;;;;;;;59.08;29.05;;;;;;;;;;5033051;28;20049;-76
2023/03/06 06:59:43;;;;;;;60.15;28.92;;;;;;;;;;5036607;28;20037;-76
2023/03/06 07:02:13;;;;;;;55.72;26.55;;;;;;;;;;5032870;28;20049;-76
2023/03/06 07:04:39;;;;;;;52.72;27.02;;;;;;;;;;5033118;28;20566;-76
2023/03/06 07:07:05;;;;;;;57.78;30.23;;;;;;;;;;5036278;28;20064;-76
2023/03/06 07:09:31;;;;;;;59.83;26.90;;;;;;;;;;5024563;28;20065;-76
2023/03/06 07:11:57;;;;;;;54.38;27.08;;;;;;;;;;5022840;28;20060;-76
2023/03/06 07:14:23;;;;;;;72.80;33.20;;;;;;;;;;5027759;28;20107;-76
2023/03/06 07:16:49;;;;;;;61.50;30.17;;;;;;;;;;5030244;28;20394;-74
2023/03/06 07:19:15;;;;;;;66.03;32.50;;;;;;;;;;5027406;28;20033;-75
2023/03/06 07:21:41;;;;;;;65.07;34.58;;;;;;;;;;5033529;28;20051;-75
2023/03/06 07:24:07;;;;;;;68.95;35.20;;;;;;;;;;5026160;28;20104;-75
2023/03/06 07:26:33;;;;;;;77.03;35.95;;;;;;;;;;5029226;28;20037;-75
2023/03/06 07:29:00;;;;;;;71.80;35.17;;;;;;;;;;5023705;28;20033;-75
2023/03/06 07:31:27;;;;;;;85.35;37.47;;;;;;;;;;5023009;28;20361;-75
2023/03/06 07:33:53;;;;;;;74.95;35.38;;;;;;;;;;5023464;28;20029;-75
2023/03/06 07:36:20;;;;;;;75.47;34.47;;;;;;;;;;5025552;28;20063;-75
2023/03/06 07:38:47;;;;;;;64.93;33.17;;;;;;;;;;5031872;28;20447;-76
2023/03/06 07:41:15;;;;;;;79.95;35.45;;;;;;;;;;5026950;28;20036;-75
2023/03/06 07:43:41;;;;;;;66.43;32.17;;;;;;;;;;5032766;28;20063;-75
2023/03/06 07:46:07;;;;;;;62.90;31.48;;;;;;;;;;5021132;28;20056;-75
2023/03/06 07:48:33;;;;;;;55.53;29.05;;;;;;;;;;5025961;28;20021;-75
2023/03/06 07:51:01;;;;;;;57.13;31.88;;;;;;;;;;5028168;28;20030;-75
2023/03/06 07:53:27;;;;;;;61.60;29.90;;;;;;;;;;5044056;28;20047;-75
2023/03/06 07:55:53;;;;;;;62.90;31.20;;;;;;;;;;5040112;28;20119;-75
2023/03/06 07:58:19;;;;;;;65.22;31.83;;;;;;;;;;5030990;28;20037;-75
2023/03/06 08:00:45;;;;;;;61.97;32.33;;;;;;;;;;5029471;28;20036;-75
2023/03/06 08:03:11;;;;;;;55.70;29.60;;;;;;;;;;5033993;28;20746;-75
2023/03/06 08:05:37;;;;;;;55.55;30.15;;;;;;;;;;5034308;28;20128;-75
2023/03/06 08:08:03;;;;;;;49.15;25.83;;;;;;;;;;5020109;28;20033;-75
2023/03/06 08:10:29;;;;;;;50.08;26.60;;;;;;;;;;5028388;28;20032;-75
2023/03/06 08:12:55;;;;;;;51.67;26.80;;;;;;;;;;5022132;28;20041;-75
2023/03/06 08:15:21;;;;;;;46.83;25.77;;;;;;;;;;5022717;28;20398;-77
2023/03/06 08:17:47;;;;;;;54.92;29.70;;;;;;;;;;5030261;28;20049;-77
2023/03/06 08:20:13;;;;;;;48.97;27.02;;;;;;;;;;5017294;28;20412;-77
2023/03/06 08:22:40;;;;;;;51.33;28.13;;;;;;;;;;5030514;28;20038;-77
2023/03/06 08:25:06;;;;;;;64.57;34.45;;;;;;;;;;5027776;28;20070;-77
2023/03/06 08:27:33;;;;;;;51.28;28.80;;;;;;;;;;5018612;28;20049;-77
2023/03/06 08:29:59;;;;;;;59.55;32.00;;;;;;;;;;5023265;28;20116;-77
2023/03/06 08:32:26;;;;;;;54.00;29.88;;;;;;;;;;5028565;28;20036;-77
2023/03/06 08:34:52;;;;;;;55.60;29.73;;;;;;;;;;5030602;28;20107;-77
2023/03/06 08:37:18;;;;;;;51.50;26.08;;;;;;;;;;5027976;28;20693;-76
2023/03/06 08:39:44;;;;;;;49.83;28.05;;;;;;;;;;5028304;28;20068;-77
2023/03/06 08:42:10;;;;;;;47.92;26.70;;;;;;;;;;5027758;28;20148;-76
2023/03/06 08:44:36;;;;;;;50.58;26.25;;;;;;;;;;5016317;28;20117;-76
2023/03/06 08:47:03;;;;;;;50.63;27.13;;;;;;;;;;5038856;28;20802;-77
2023/03/06 08:49:29;;;;;;;54.35;28.65;;;;;;;;;;5035785;28;20132;-76
2023/03/06 08:51:55;;;;;;;53.75;28.67;;;;;;;;;;5029103;28;20041;-77
2023/03/06 08:54:21;;;;;;;47.47;26.70;;;;;;;;;;5026051;28;20108;-76
2023/03/06 08:56:47;;;;;;;49.17;27.13;;;;;;;;;;5033278;28;20635;-76
2023/03/06 08:59:13;;;;;;;49.45;28.13;;;;;;;;;;5025610;28;20030;-76
2023/03/06 09:01:40;;;;;;;53.65;29.40;;;;;;;;;;5024678;28;20084;-77
2023/03/06 09:04:07;;;;;;;51.78;27.85;;;;;;;;;;5023096;28;20120;-76
2023/03/06 09:06:34;;;;;;;49.30;26.13;;;;;;;;;;5027458;28;20041;-76
2023/03/06 09:09:01;;;;;;;49.38;26.67;;;;;;;;;;5029931;28;20040;-76
2023/03/06 09:11:27;;;;;;;48.88;26.75;;;;;;;;;;5029034;28;20029;-76
2023/03/06 09:13:54;;;;;;;54.40;28.00;;;;;;;;;;5031095;28;20021;-77
2023/03/06 09:16:20;;;;;;;44.72;24.08;;;;;;;;;;5027830;28;20033;-76
2023/03/06 09:18:46;;;;;;;48.88;26.00;;;;;;;;;;5032570;28;20041;-77
2023/03/06 09:21:12;;;;;;;48.70;25.63;;;;;;;;;;5026641;28;20037;-76
2023/03/06 09:23:38;;;;;;;43.78;23.10;;;;;;;;;;5020937;28;20608;-76
2023/03/06 09:26:04;;;;;;;44.78;26.48;;;;;;;;;;5023090;28;20084;-77
2023/03/06 09:28:30;;;;;;;43.67;24.92;;;;;;;;;;5026985;28;20021;-76
2023/03/06 09:30:57;;;;;;;43.95;25.73;;;;;;;;;;5021668;28;20403;-76
2023/03/06 09:33:23;;;;;;;47.53;23.85;;;;;;;;;;5022664;28;20025;-77
2023/03/06 09:35:51;;;;;;;48.50;25.17;;;;;;;;;;5032838;28;20440;-76
2023/03/06 09:38:17;;;;;;;46.00;25.23;;;;;;;;;;5028633;28;20081;-76
2023/03/06 09:41:01;;;;;;;40.42;23.10;;;;;;;;;;5028092;28;20029;-76
2023/03/06 09:43:27;;;;;;;42.80;22.77;;;;;;;;;;5037068;28;20603;-76
2023/03/06 09:45:53;;;;;;;39.83;20.77;;;;;;;;;;5029966;28;20047;-76
2023/03/06 09:48:22;;;;;;;37.83;21.83;;;;;;;;;;5031071;28;20498;-77
2023/03/06 09:50:57;;;;;;;39.33;22.02;;;;;;;;;;5041461;28;20044;-77
2023/03/06 09:53:43;;;;;;;42.00;22.60;;;;;;;;;;5037881;28;20108;-77
2023/03/06 09:56:19;;;;;;;43.55;22.45;;;;;;;;;;5031320;28;20041;-77
2023/03/06 09:58:57;;;;;;;43.60;22.13;;;;;;;;;;5029405;28;20032;-76
2023/03/06 10:01:23;;;;;;;37.67;22.50;;;;;;;;;;5029937;28;20380;-77
2023/03/06 10:03:52;;;;;;;41.85;23.15;;;;;;;;;;5023453;28;20034;-77
2023/03/06 10:06:29;;;;;;;45.25;23.80;;;;;;;;;;5029976;28;20147;-77
2023/03/06 10:09:00;;;;;;;45.50;22.90;;;;;;;;;;5030114;28;20025;-77
2023/03/06 10:11:47;;;;;;;43.67;22.67;;;;;;;;;;5025925;28;20072;-76
2023/03/06 10:14:15;;;;;;;44.83;23.38;;;;;;;;;;5007302;28;20499;-77
2023/03/06 10:16:42;;;;;;;35.50;21.50;;;;;;;;;;5029561;28;20044;-76
2023/03/06 10:19:15;;;;;;;35.83;22.70;;;;;;;;;;5021360;28;20584;-77
2023/03/06 10:21:55;;;;;;;39.13;21.83;;;;;;;;;;5035324;28;20131;-77
2023/03/06 10:24:25;;;;;;;41.13;23.23;;;;;;;;;;5021755;28;20037;-77
2023/03/06 10:26:57;;;;;;;41.88;24.65;;;;;;;;;;5026679;28;20088;-77
2023/03/06 10:29:23;;;;;;;41.63;24.70;;;;;;;;;;5021966;28;20864;-77
2023/03/06 10:31:51;;;;;;;40.35;23.20;;;;;;;;;;5036752;28;20072;-77
2023/03/06 10:34:17;;;;;;;43.03;25.55;;;;;;;;;;5026949;28;20036;-77
2023/03/06 10:36:43;;;;;;;43.25;25.00;;;;;;;;;;5025079;28;20033;-77
2023/03/06 10:39:13;;;;;;;50.90;29.20;;;;;;;;;;5031492;28;20033;-76
2023/03/06 10:41:39;;;;;;;45.38;25.48;;;;;;;;;;5025773;28;20072;-77
2023/03/06 10:44:06;;;;;;;49.83;26.35;;;;;;;;;;5033928;28;20037;-77
2023/03/06 10:46:41;;;;;;;47.15;26.70;;;;;;;;;;5029736;28;20036;-77
2023/03/06 10:49:22;;;;;;;47.47;27.15;;;;;;;;;;5024578;28;20034;-76
2023/03/06 10:51:56;;;;;;;46.88;28.10;;;;;;;;;;5028946;28;20037;-76
2023/03/06 10:54:22;;;;;;;45.92;26.08;;;;;;;;;;5026509;28;20030;-77
2023/03/06 10:56:48;;;;;;;48.63;25.75;;;;;;;;;;5022652;28;20075;-77
2023/03/06 10:59:17;;;;;;;49.97;27.98;;;;;;;;;;5029962;28;20032;-77
2023/03/06 11:01:44;;;;;;;45.95;26.65;;;;;;;;;;5030679;28;20483;-77
2023/03/06 11:04:27;;;;;;;46.33;28.05;;;;;;;;;;5029286;28;20158;-77
2023/03/06 11:07:13;;;;;;;50.90;26.73;;;;;;;;;;5018502;28;20809;-77
2023/03/06 11:09:39;;;;;;;42.60;24.20;;;;;;;;;;5027715;28;20808;-77
2023/03/06 11:12:21;;;;;;;42.78;25.35;;;;;;;;;;5032305;28;20036;-77
2023/03/06 11:14:47;;;;;;;43.20;25.15;;;;;;;;;;5022536;28;20506;-77
2023/03/06 11:17:27;;;;;;;49.78;25.25;;;;;;;;;;5024547;28;20403;-77
2023/03/06 11:20:07;;;;;;;43.15;23.35;;;;;;;;;;5021131;28;20038;-77
2023/03/06 11:22:34;;;;;;;44.95;24.45;;;;;;;;;;5025877;28;20025;-77
2023/03/06 11:25:00;;;;;;;42.05;23.85;;;;;;;;;;5023414;28;20485;-76
2023/03/06 11:27:33;;;;;;;43.83;23.88;;;;;;;;;;5027643;28;20482;-77
2023/03/06 11:30:01;;;;;;;41.40;24.42;;;;;;;;;;5027659;28;20760;-77
2023/03/06 11:32:39;;;;;;;39.58;22.08;;;;;;;;;;5031030;28;20037;-77
2023/03/06 11:35:11;;;;;;;40.47;22.45;;;;;;;;;;5030101;28;20043;-77
2023/03/06 11:37:47;;;;;;;42.60;23.40;;;;;;;;;;5023663;28;20038;-76
2023/03/06 11:40:17;;;;;;;40.22;23.98;;;;;;;;;;5025993;28;20033;-77
2023/03/06 11:42:52;;;;;;;41.92;23.48;;;;;;;;;;5023795;28;20038;-77
2023/03/06 11:45:43;;;;;;;39.03;22.90;;;;;;;;;;5031332;28;20037;-76
2023/03/06 11:48:12;;;;;;;40.95;24.17;;;;;;;;;;5030585;28;20387;-77
2023/03/06 11:50:41;;;;;;;43.78;23.27;;;;;;;;;;5026715;28;20033;-76
2023/03/06 11:53:11;;;;;;;40.53;24.77;;;;;;;;;;5025463;28;20037;-77
2023/03/06 11:55:37;;;;;;;38.30;24.30;;;;;;;;;;5023407;28;20030;-76
2023/03/06 11:58:22;;;;;;;42.72;24.67;;;;;;;;;;5025365;28;20144;-77
2023/03/06 12:00:54;;;;;;;38.63;23.27;;;;;;;;;;5021051;28;20111;-77
2023/03/06 12:03:39;;;;;;;38.72;22.35;;;;;;;;;;5025337;28;20029;-77
2023/03/06 12:06:10;;;;;;;38.53;22.23;;;;;;;;;;5025956;28;20413;-77
2023/03/06 12:08:43;;;;;;;34.57;21.27;;;;;;;;;;5022602;28;20120;-76
2023/03/06 12:11:44;;;;;;;39.47;23.48;;;;;;;;;;5028539;28;20041;-77
2023/03/06 12:14:10;;;;;;;42.40;23.40;;;;;;;;;;4985984;28;20038;-77
2023/03/06 12:16:57;;;;;;;43.17;21.30;;;;;;;;;;5016381;28;20052;-77
2023/03/06 12:19:32;;;;;;;41.17;17.98;;;;;;;;;;5026457;28;20025;-77
2023/03/06 12:22:10;;;;;;;32.30;17.23;;;;;;;;;;5021879;28;20032;-77
2023/03/06 12:24:46;;;;;;;31.38;17.02;;;;;;;;;;5029600;28;20030;-77
2023/03/06 12:27:31;;;;;;;29.08;16.90;;;;;;;;;;5030480;28;20363;-77
2023/03/06 12:29:57;;;;;;;30.33;17.20;;;;;;;;;;5025668;28;20042;-76
2023/03/06 12:32:26;;;;;;;33.13;17.63;;;;;;;;;;5021850;28;20037;-77
2023/03/06 12:34:55;;;;;;;29.88;16.67;;;;;;;;;;5027576;28;20037;-76
2023/03/06 12:37:28;;;;;;;26.88;15.60;;;;;;;;;;5025987;28;20057;-77
2023/03/06 12:40:05;;;;;;;30.60;15.65;;;;;;;;;;5027075;28;20030;-76
2023/03/06 12:42:46;;;;;;;26.40;13.48;;;;;;;;;;5021544;28;20674;-77
2023/03/06 12:45:31;;;;;;;23.05;13.75;;;;;;;;;;5026105;28;20752;-76
2023/03/06 12:47:58;;;;;;;26.05;14.27;;;;;;;;;;5023845;28;20041;-77
2023/03/06 12:50:32;;;;;;;33.83;15.40;;;;;;;;;;5027523;28;20072;-77
2023/03/06 12:53:02;;;;;;;27.70;15.38;;;;;;;;;;5020497;28;20042;-76
2023/03/06 12:55:30;;;;;;;25.35;14.38;;;;;;;;;;5027256;28;20040;-77
2023/03/06 12:57:56;;;;;;;25.63;14.77;;;;;;;;;;5022539;28;20042;-77
2023/03/06 13:00:34;;;;;;;29.45;15.27;;;;;;;;;;5020540;28;20032;-77
2023/03/06 13:03:22;;;;;;;28.35;15.32;;;;;;;;;;5020567;28;20030;-77
2023/03/06 13:05:52;;;;;;;33.55;15.65;;;;;;;;;;5023998;28;20053;-77
2023/03/06 13:08:38;;;;;;;28.63;15.00;;;;;;;;;;5023990;28;20044;-77
2023/03/06 13:11:18;;;;;;;28.83;14.63;;;;;;;;;;5026279;28;20088;-76
2023/03/06 13:13:46;;;;;;;35.72;16.15;;;;;;;;;;5033336;28;20048;-77
2023/03/06 13:16:18;;;;;;;30.10;15.98;;;;;;;;;;5032768;28;20056;-76
2023/03/06 13:18:44;;;;;;;;;;;;;;;;;;5031323;28;20034;-77
2023/03/06 13:21:28;;;;;;;27.98;14.00;;;;;;;;;;5035562;28;19928;-77
2023/03/06 13:24:02;;;;;;;29.13;14.60;;;;;;;;;;5023784;28;20079;-76
2023/03/06 13:26:28;;;;;;;29.23;15.30;;;;;;;;;;5026153;28;20057;-76
2023/03/06 13:28:56;;;;;;;28.25;14.20;;;;;;;;;;5035047;28;20550;-77
2023/03/06 13:31:28;;;;;;;25.00;14.25;;;;;;;;;;5027965;28;20073;-77
2023/03/06 13:34:15;;;;;;;28.75;13.57;;;;;;;;;;5027910;28;20033;-77
2023/03/06 13:36:41;;;;;;;25.83;12.85;;;;;;;;;;5015112;28;20049;-76
2023/03/06 13:39:10;;;;;;;26.58;12.45;;;;;;;;;;5019447;28;20030;-76
2023/03/06 13:42:03;;;;;;;20.15;11.25;;;;;;;;;;5032138;28;20025;-77
2023/03/06 13:44:29;;;;;;;25.63;11.57;;;;;;;;;;5021178;28;20037;-76
2023/03/06 13:47:00;;;;;;;19.25;10.27;;;;;;;;;;5029484;28;20068;-76
2023/03/06 13:49:26;;;;;;;24.45;10.73;;;;;;;;;;5021413;28;20029;-76
2023/03/06 13:51:52;;;;;;;27.40;11.80;;;;;;;;;;5022636;28;20411;-76
2023/03/06 13:54:25;;;;;;;24.50;10.93;;;;;;;;;;5028698;28;20029;-77
2023/03/06 13:56:53;;;;;;;20.13;10.70;;;;;;;;;;5030889;28;20034;-76
2023/03/06 13:59:38;;;;;;;19.65;9.52;;;;;;;;;;5026766;28;20052;-76
2023/03/06 14:02:14;;;;;;;20.02;9.15;;;;;;;;;;5028917;28;20029;-77
2023/03/06 14:04:46;;;;;;;22.60;10.00;;;;;;;;;;5026234;28;20053;-77
2023/03/06 14:07:22;;;;;;;22.55;8.65;;;;;;;;;;5027806;28;20479;-76
2023/03/06 14:09:53;;;;;;;23.73;9.57;;;;;;;;;;5031409;28;20522;-76
2023/03/06 14:12:22;;;;;;;19.30;9.43;;;;;;;;;;5037397;28;20395;-76
2023/03/06 14:14:57;;;;;;;18.15;7.82;;;;;;;;;;5031829;28;20033;-76
2023/03/06 14:17:33;;;;;;;22.27;9.55;;;;;;;;;;5029680;28;20037;-77
2023/03/06 14:20:11;;;;;;;35.63;12.57;;;;;;;;;;5029880;28;20041;-77
2023/03/06 14:22:37;;;;;;;17.40;9.18;;;;;;;;;;5037348;28;20030;-77
2023/03/06 14:25:13;;;;;;;19.75;9.43;;;;;;;;;;5023529;28;20076;-76
2023/03/06 14:27:39;;;;;;;22.15;8.07;;;;;;;;;;5024934;28;20061;-77